sensor_id;sensor_type;location;lat;lon;timestamp;temperature;humidity
28863;DHT22;15994;51.796;13.006;2022-11-20T00:01:21;-0.80;99.90
28863;DHT22;15994;51.796;13.006;2022-11-20T00:03:48;-0.80;99.90
28863;DHT22;15994;51.796;13.006;2022-11-20T00:06:17;-0.80;99.90
28863;DHT22;15994;51.796;13.006;2022-11-20T00:08:44;-0.90;99.90
28863;DHT22;15994;51.796;13.006;2022-11-20T00:11:13;-0.90;99.90
28863;DHT22;15994;51.796;13.006;2022-11-20T00:13:40;-0.90;99.90
28863;DHT22;15994;51.796;13.006;2022-11-20T00:16:09;-0.80;99.90
28863;DHT22;15994;51.796;13.006;2022-11-20T00:18:36;-0.80;99.90
28863;DHT22;15994;51.796;13.006;2022-11-20T00:21:05;-0.70;99.90
28863;DHT22;15994;51.796;13.006;2022-11-20T00:23:32;-0.70;99.90
28863;DHT22;15994;51.796;13.006;2022-11-20T00:26:06;-0.60;99.90
28863;DHT22;15994;51.796;13.006;2022-11-20T00:28:33;-0.50;99.90
28863;DHT22;15994;51.796;13.006;2022-11-20T00:31:14;-0.40;99.90
28863;DHT22;15994;51.796;13.006;2022-11-20T00:33:42;-0.30;99.90
28863;DHT22;15994;51.796;13.006;2022-11-20T00:36:11;-0.30;99.90
28863;DHT22;15994;51.796;13.006;2022-11-20T00:38:38;-0.20;99.90
28863;DHT22;15994;51.796;13.006;2022-11-20T00:41:08;-0.20;99.90
28863;DHT22;15994;51.796;13.006;2022-11-20T00:43:35;-0.20;99.90
28863;DHT22;15994;51.796;13.006;2022-11-20T00:46:10;-0.20;99.90
28863;DHT22;15994;51.796;13.006;2022-11-20T00:48:37;-0.20;99.90
28863;DHT22;15994;51.796;13.006;2022-11-20T00:51:03;-0.20;99.90
28863;DHT22;15994;51.796;13.006;2022-11-20T00:53:31;-0.20;99.90
28863;DHT22;15994;51.796;13.006;2022-11-20T00:56:00;-0.20;99.90
28863;DHT22;15994;51.796;13.006;2022-11-20T00:58:34;-0.20;99.90
28863;DHT22;15994;51.796;13.006;2022-11-20T01:01:05;-0.20;99.90
28863;DHT22;15994;51.796;13.006;2022-11-20T01:03:33;-0.20;99.90
28863;DHT22;15994;51.796;13.006;2022-11-20T01:06:07;-0.20;99.90
28863;DHT22;15994;51.796;13.006;2022-11-20T01:08:35;-0.20;99.90
28863;DHT22;15994;51.796;13.006;2022-11-20T01:11:09;-0.20;99.90
28863;DHT22;15994;51.796;13.006;2022-11-20T01:13:37;-0.20;99.90
28863;DHT22;15994;51.796;13.006;2022-11-20T01:16:21;-0.20;99.90
28863;DHT22;15994;51.796;13.006;2022-11-20T01:18:50;-0.20;99.90
28863;DHT22;15994;51.796;13.006;2022-11-20T01:21:38;-0.20;99.90
28863;DHT22;15994;51.796;13.006;2022-11-20T01:24:06;-0.20;99.90
28863;DHT22;15994;51.796;13.006;2022-11-20T01:26:35;-0.20;99.90
28863;DHT22;15994;51.796;13.006;2022-11-20T01:29:03;-0.20;99.90
28863;DHT22;15994;51.796;13.006;2022-11-20T01:31:34;-0.20;99.90
28863;DHT22;15994;51.796;13.006;2022-11-20T01:34:07;-0.20;99.90
28863;DHT22;15994;51.796;13.006;2022-11-20T01:36:36;-0.20;99.90
28863;DHT22;15994;51.796;13.006;2022-11-20T01:39:24;-0.20;99.90
28863;DHT22;15994;51.796;13.006;2022-11-20T01:41:52;-0.20;99.90
28863;DHT22;15994;51.796;13.006;2022-11-20T01:47:34;-0.40;99.90
28863;DHT22;15994;51.796;13.006;2022-11-20T01:50:22;-0.50;99.90
28863;DHT22;15994;51.796;13.006;2022-11-20T01:52:56;-0.60;99.90
28863;DHT22;15994;51.796;13.006;2022-11-20T01:55:31;-0.70;99.90
28863;DHT22;15994;51.796;13.006;2022-11-20T01:57:59;-0.80;99.90
28863;DHT22;15994;51.796;13.006;2022-11-20T02:00:26;-0.80;99.90
28863;DHT22;15994;51.796;13.006;2022-11-20T02:03:19;-0.80;99.90
28863;DHT22;15994;51.796;13.006;2022-11-20T02:06:04;-0.90;99.90
28863;DHT22;15994;51.796;13.006;2022-11-20T02:08:34;-0.90;99.90
28863;DHT22;15994;51.796;13.006;2022-11-20T02:11:01;-1.00;99.90
28863;DHT22;15994;51.796;13.006;2022-11-20T02:13:28;-1.00;99.90
28863;DHT22;15994;51.796;13.006;2022-11-20T02:16:11;-1.10;99.90
28863;DHT22;15994;51.796;13.006;2022-11-20T02:18:40;-1.20;99.90
28863;DHT22;15994;51.796;13.006;2022-11-20T02:21:21;-1.20;99.90
28863;DHT22;15994;51.796;13.006;2022-11-20T02:24:08;-1.30;99.90
28863;DHT22;15994;51.796;13.006;2022-11-20T02:29:32;-1.40;99.90
28863;DHT22;15994;51.796;13.006;2022-11-20T02:32:00;-1.50;99.90
28863;DHT22;15994;51.796;13.006;2022-11-20T02:34:28;-1.50;99.90
28863;DHT22;15994;51.796;13.006;2022-11-20T02:36:56;-1.50;99.90
28863;DHT22;15994;51.796;13.006;2022-11-20T02:39:25;-1.50;99.90
28863;DHT22;15994;51.796;13.006;2022-11-20T02:41:56;-1.50;99.90
28863;DHT22;15994;51.796;13.006;2022-11-20T02:44:23;-1.60;99.90
28863;DHT22;15994;51.796;13.006;2022-11-20T02:46:49;-1.60;99.90
28863;DHT22;15994;51.796;13.006;2022-11-20T02:49:16;-1.60;99.90
28863;DHT22;15994;51.796;13.006;2022-11-20T02:51:43;-1.70;99.90
28863;DHT22;15994;51.796;13.006;2022-11-20T02:54:09;-1.70;99.90
28863;DHT22;15994;51.796;13.006;2022-11-20T02:56:38;-1.70;99.90
28863;DHT22;15994;51.796;13.006;2022-11-20T02:59:05;-1.80;99.90
28863;DHT22;15994;51.796;13.006;2022-11-20T03:01:32;-1.80;99.90
28863;DHT22;15994;51.796;13.006;2022-11-20T03:03:58;-1.90;99.90
28863;DHT22;15994;51.796;13.006;2022-11-20T03:06:25;-2.00;99.90
28863;DHT22;15994;51.796;13.006;2022-11-20T03:08:52;-2.00;99.90
28863;DHT22;15994;51.796;13.006;2022-11-20T03:11:18;-2.10;99.90
28863;DHT22;15994;51.796;13.006;2022-11-20T03:13:45;-2.10;99.90
28863;DHT22;15994;51.796;13.006;2022-11-20T03:16:14;-2.10;99.90
28863;DHT22;15994;51.796;13.006;2022-11-20T03:18:42;-2.10;99.90
28863;DHT22;15994;51.796;13.006;2022-11-20T03:21:09;-2.10;99.90
28863;DHT22;15994;51.796;13.006;2022-11-20T03:23:37;-2.10;99.90
28863;DHT22;15994;51.796;13.006;2022-11-20T03:26:17;-2.10;99.90
28863;DHT22;15994;51.796;13.006;2022-11-20T03:28:49;-2.00;99.90
28863;DHT22;15994;51.796;13.006;2022-11-20T03:31:18;-1.90;99.90
28863;DHT22;15994;51.796;13.006;2022-11-20T03:33:45;-1.90;99.90
28863;DHT22;15994;51.796;13.006;2022-11-20T03:36:13;-1.90;99.90
28863;DHT22;15994;51.796;13.006;2022-11-20T03:38:41;-1.80;99.90
28863;DHT22;15994;51.796;13.006;2022-11-20T03:41:19;-1.80;99.90
28863;DHT22;15994;51.796;13.006;2022-11-20T03:43:49;-1.80;99.90
28863;DHT22;15994;51.796;13.006;2022-11-20T03:46:16;-1.80;99.90
28863;DHT22;15994;51.796;13.006;2022-11-20T03:48:43;-1.80;99.90
28863;DHT22;15994;51.796;13.006;2022-11-20T03:51:18;-1.80;99.90
28863;DHT22;15994;51.796;13.006;2022-11-20T03:53:47;-1.90;99.90
28863;DHT22;15994;51.796;13.006;2022-11-20T03:56:15;-1.90;99.90
28863;DHT22;15994;51.796;13.006;2022-11-20T03:58:43;-2.00;99.90
28863;DHT22;15994;51.796;13.006;2022-11-20T04:01:14;-2.00;99.90
28863;DHT22;15994;51.796;13.006;2022-11-20T04:03:42;-2.00;99.90
28863;DHT22;15994;51.796;13.006;2022-11-20T04:06:15;-2.00;99.90
28863;DHT22;15994;51.796;13.006;2022-11-20T04:08:42;-2.00;99.90
28863;DHT22;15994;51.796;13.006;2022-11-20T04:11:14;-2.10;99.90
28863;DHT22;15994;51.796;13.006;2022-11-20T04:13:42;-2.00;99.90
28863;DHT22;15994;51.796;13.006;2022-11-20T04:16:09;-2.10;99.90
28863;DHT22;15994;51.796;13.006;2022-11-20T04:18:36;-2.10;99.90
28863;DHT22;15994;51.796;13.006;2022-11-20T04:21:04;-2.10;99.90
28863;DHT22;15994;51.796;13.006;2022-11-20T04:23:31;-2.20;99.90
28863;DHT22;15994;51.796;13.006;2022-11-20T04:26:02;-2.20;99.90
28863;DHT22;15994;51.796;13.006;2022-11-20T04:28:29;-2.10;99.90
28863;DHT22;15994;51.796;13.006;2022-11-20T04:31:02;-2.10;99.90
28863;DHT22;15994;51.796;13.006;2022-11-20T04:33:29;-2.10;99.90
28863;DHT22;15994;51.796;13.006;2022-11-20T04:36:03;-2.10;99.90
28863;DHT22;15994;51.796;13.006;2022-11-20T04:38:30;-2.10;99.90
28863;DHT22;15994;51.796;13.006;2022-11-20T04:40:58;-2.10;99.90
28863;DHT22;15994;51.796;13.006;2022-11-20T04:43:25;-2.20;99.90
28863;DHT22;15994;51.796;13.006;2022-11-20T04:45:56;-2.20;99.90
28863;DHT22;15994;51.796;13.006;2022-11-20T04:48:24;-2.20;99.90
28863;DHT22;15994;51.796;13.006;2022-11-20T04:50:52;-2.30;99.90
28863;DHT22;15994;51.796;13.006;2022-11-20T04:53:19;-2.30;99.90
28863;DHT22;15994;51.796;13.006;2022-11-20T04:55:46;-2.20;99.90
28863;DHT22;15994;51.796;13.006;2022-11-20T04:58:14;-2.20;99.90
28863;DHT22;15994;51.796;13.006;2022-11-20T05:00:40;-2.20;99.90
28863;DHT22;15994;51.796;13.006;2022-11-20T05:03:07;-2.20;99.90
28863;DHT22;15994;51.796;13.006;2022-11-20T05:05:34;-2.10;99.90
28863;DHT22;15994;51.796;13.006;2022-11-20T05:08:01;-2.20;99.90
28863;DHT22;15994;51.796;13.006;2022-11-20T05:10:28;-2.20;99.90
28863;DHT22;15994;51.796;13.006;2022-11-20T05:12:54;-2.20;99.90
28863;DHT22;15994;51.796;13.006;2022-11-20T05:15:21;-2.20;99.90
28863;DHT22;15994;51.796;13.006;2022-11-20T05:17:49;-2.20;99.90
28863;DHT22;15994;51.796;13.006;2022-11-20T05:20:16;-2.20;99.90
28863;DHT22;15994;51.796;13.006;2022-11-20T05:22:42;-2.20;99.90
28863;DHT22;15994;51.796;13.006;2022-11-20T05:25:10;-2.30;99.90
28863;DHT22;15994;51.796;13.006;2022-11-20T05:27:37;-2.30;99.90
28863;DHT22;15994;51.796;13.006;2022-11-20T05:30:04;-2.30;99.90
28863;DHT22;15994;51.796;13.006;2022-11-20T05:32:31;-2.30;99.90
28863;DHT22;15994;51.796;13.006;2022-11-20T05:34:58;-2.40;99.90
28863;DHT22;15994;51.796;13.006;2022-11-20T05:37:24;-2.40;99.90
28863;DHT22;15994;51.796;13.006;2022-11-20T05:39:51;-2.50;99.90
28863;DHT22;15994;51.796;13.006;2022-11-20T05:42:18;-2.50;99.90
28863;DHT22;15994;51.796;13.006;2022-11-20T05:45:00;-2.50;99.90
28863;DHT22;15994;51.796;13.006;2022-11-20T05:47:32;-2.50;99.90
28863;DHT22;15994;51.796;13.006;2022-11-20T05:49:59;-2.60;99.90
28863;DHT22;15994;51.796;13.006;2022-11-20T05:52:28;-2.60;99.90
28863;DHT22;15994;51.796;13.006;2022-11-20T05:54:55;-2.60;99.90
28863;DHT22;15994;51.796;13.006;2022-11-20T05:57:22;-2.60;99.90
28863;DHT22;15994;51.796;13.006;2022-11-20T05:59:49;-2.60;99.90
28863;DHT22;15994;51.796;13.006;2022-11-20T06:02:15;-2.50;99.90
28863;DHT22;15994;51.796;13.006;2022-11-20T06:04:42;-2.50;99.90
28863;DHT22;15994;51.796;13.006;2022-11-20T06:07:08;-2.50;99.90
28863;DHT22;15994;51.796;13.006;2022-11-20T06:09:35;-2.50;99.90
28863;DHT22;15994;51.796;13.006;2022-11-20T06:12:02;-2.40;99.90
28863;DHT22;15994;51.796;13.006;2022-11-20T06:14:28;-2.40;99.90
28863;DHT22;15994;51.796;13.006;2022-11-20T06:16:55;-2.40;99.90
28863;DHT22;15994;51.796;13.006;2022-11-20T06:19:22;-2.40;99.90
28863;DHT22;15994;51.796;13.006;2022-11-20T06:21:49;-2.40;99.90
28863;DHT22;15994;51.796;13.006;2022-11-20T06:24:15;-2.40;99.90
28863;DHT22;15994;51.796;13.006;2022-11-20T06:26:43;-2.30;99.90
28863;DHT22;15994;51.796;13.006;2022-11-20T06:29:10;-2.40;99.90
28863;DHT22;15994;51.796;13.006;2022-11-20T06:31:37;-2.40;99.90
28863;DHT22;15994;51.796;13.006;2022-11-20T06:34:04;-2.30;99.90
28863;DHT22;15994;51.796;13.006;2022-11-20T06:36:31;-2.30;99.90
28863;DHT22;15994;51.796;13.006;2022-11-20T06:38:59;-2.20;99.90
28863;DHT22;15994;51.796;13.006;2022-11-20T06:41:25;-2.30;99.90
28863;DHT22;15994;51.796;13.006;2022-11-20T06:43:53;-2.30;99.90
28863;DHT22;15994;51.796;13.006;2022-11-20T06:46:20;-2.30;99.90
28863;DHT22;15994;51.796;13.006;2022-11-20T06:48:48;-2.30;99.90
28863;DHT22;15994;51.796;13.006;2022-11-20T06:51:15;-2.30;99.90
28863;DHT22;15994;51.796;13.006;2022-11-20T06:53:42;-2.30;99.90
28863;DHT22;15994;51.796;13.006;2022-11-20T06:56:08;-2.40;99.90
28863;DHT22;15994;51.796;13.006;2022-11-20T06:58:36;-2.40;99.90
28863;DHT22;15994;51.796;13.006;2022-11-20T07:01:12;-2.40;99.90
28863;DHT22;15994;51.796;13.006;2022-11-20T07:03:39;-2.40;99.90
28863;DHT22;15994;51.796;13.006;2022-11-20T07:06:07;-2.30;99.90
28863;DHT22;15994;51.796;13.006;2022-11-20T07:08:34;-2.30;99.90
28863;DHT22;15994;51.796;13.006;2022-11-20T07:11:03;-2.30;99.90
28863;DHT22;15994;51.796;13.006;2022-11-20T07:13:31;-2.40;99.90
28863;DHT22;15994;51.796;13.006;2022-11-20T07:16:03;-2.40;99.90
28863;DHT22;15994;51.796;13.006;2022-11-20T07:18:30;-2.30;99.90
28863;DHT22;15994;51.796;13.006;2022-11-20T07:21:03;-2.40;99.90
28863;DHT22;15994;51.796;13.006;2022-11-20T07:23:30;-2.30;99.90
28863;DHT22;15994;51.796;13.006;2022-11-20T07:25:57;-2.40;99.90
28863;DHT22;15994;51.796;13.006;2022-11-20T07:28:24;-2.30;99.90
28863;DHT22;15994;51.796;13.006;2022-11-20T07:30:52;-2.20;99.90
28863;DHT22;15994;51.796;13.006;2022-11-20T07:33:20;-2.20;99.90
28863;DHT22;15994;51.796;13.006;2022-11-20T07:35:46;-2.20;99.90
28863;DHT22;15994;51.796;13.006;2022-11-20T07:38:13;-2.10;99.90
28863;DHT22;15994;51.796;13.006;2022-11-20T07:40:40;-2.10;99.90
28863;DHT22;15994;51.796;13.006;2022-11-20T07:43:06;-2.00;99.90
28863;DHT22;15994;51.796;13.006;2022-11-20T07:45:33;-2.00;99.90
28863;DHT22;15994;51.796;13.006;2022-11-20T07:48:00;-1.90;99.90
28863;DHT22;15994;51.796;13.006;2022-11-20T07:50:26;-1.90;99.90
28863;DHT22;15994;51.796;13.006;2022-11-20T07:53:01;-1.90;99.90
28863;DHT22;15994;51.796;13.006;2022-11-20T07:55:28;-1.90;99.90
28863;DHT22;15994;51.796;13.006;2022-11-20T07:57:55;-1.90;99.90
28863;DHT22;15994;51.796;13.006;2022-11-20T08:00:22;-1.90;99.90
28863;DHT22;15994;51.796;13.006;2022-11-20T08:02:49;-1.80;99.90
28863;DHT22;15994;51.796;13.006;2022-11-20T08:05:16;-1.80;99.90
28863;DHT22;15994;51.796;13.006;2022-11-20T08:07:43;-1.80;99.90
28863;DHT22;15994;51.796;13.006;2022-11-20T08:10:12;-1.80;99.90
28863;DHT22;15994;51.796;13.006;2022-11-20T08:12:49;-1.80;99.90
28863;DHT22;15994;51.796;13.006;2022-11-20T08:15:35;-1.70;99.90
28863;DHT22;15994;51.796;13.006;2022-11-20T08:18:04;-1.70;99.90
28863;DHT22;15994;51.796;13.006;2022-11-20T08:20:32;-1.60;99.90
28863;DHT22;15994;51.796;13.006;2022-11-20T08:23:00;-1.60;99.90
28863;DHT22;15994;51.796;13.006;2022-11-20T08:25:28;-1.60;99.90
28863;DHT22;15994;51.796;13.006;2022-11-20T08:28:00;-1.50;99.90
28863;DHT22;15994;51.796;13.006;2022-11-20T08:30:27;-1.50;99.90
28863;DHT22;15994;51.796;13.006;2022-11-20T08:32:54;-1.40;99.90
28863;DHT22;15994;51.796;13.006;2022-11-20T08:35:22;-1.30;99.90
28863;DHT22;15994;51.796;13.006;2022-11-20T08:37:48;-1.30;99.90
28863;DHT22;15994;51.796;13.006;2022-11-20T08:40:15;-1.30;99.90
28863;DHT22;15994;51.796;13.006;2022-11-20T08:42:46;-1.30;99.90
28863;DHT22;15994;51.796;13.006;2022-11-20T08:45:13;-1.30;99.90
28863;DHT22;15994;51.796;13.006;2022-11-20T08:47:40;-1.20;99.90
28863;DHT22;15994;51.796;13.006;2022-11-20T08:50:08;-1.20;99.90
28863;DHT22;15994;51.796;13.006;2022-11-20T08:52:34;-1.10;99.90
28863;DHT22;15994;51.796;13.006;2022-11-20T08:55:05;-1.00;99.90
28863;DHT22;15994;51.796;13.006;2022-11-20T08:57:33;-1.00;99.90
28863;DHT22;15994;51.796;13.006;2022-11-20T09:00:00;-0.90;99.90
28863;DHT22;15994;51.796;13.006;2022-11-20T09:02:27;-1.00;99.90
28863;DHT22;15994;51.796;13.006;2022-11-20T09:04:53;-0.90;99.90
28863;DHT22;15994;51.796;13.006;2022-11-20T09:07:20;-0.80;99.90
28863;DHT22;15994;51.796;13.006;2022-11-20T09:09:47;-0.70;99.90
28863;DHT22;15994;51.796;13.006;2022-11-20T09:12:14;-0.70;99.90
28863;DHT22;15994;51.796;13.006;2022-11-20T09:14:40;-0.60;99.90
28863;DHT22;15994;51.796;13.006;2022-11-20T09:17:07;-0.60;99.90
28863;DHT22;15994;51.796;13.006;2022-11-20T09:19:34;-0.50;99.90
28863;DHT22;15994;51.796;13.006;2022-11-20T09:22:00;-0.40;99.90
28863;DHT22;15994;51.796;13.006;2022-11-20T09:24:27;-0.30;99.90
28863;DHT22;15994;51.796;13.006;2022-11-20T09:26:54;-0.20;99.90
28863;DHT22;15994;51.796;13.006;2022-11-20T09:29:20;-0.10;99.90
28863;DHT22;15994;51.796;13.006;2022-11-20T09:31:47;-0.10;99.90
28863;DHT22;15994;51.796;13.006;2022-11-20T09:34:14;0.00;99.90
28863;DHT22;15994;51.796;13.006;2022-11-20T09:36:40;0.00;99.90
28863;DHT22;15994;51.796;13.006;2022-11-20T09:39:07;0.00;99.90
28863;DHT22;15994;51.796;13.006;2022-11-20T09:41:49;0.10;99.90
28863;DHT22;15994;51.796;13.006;2022-11-20T09:44:52;0.10;99.90
28863;DHT22;15994;51.796;13.006;2022-11-20T09:50:35;0.10;99.90
28863;DHT22;15994;51.796;13.006;2022-11-20T09:55:43;0.00;99.90
28863;DHT22;15994;51.796;13.006;2022-11-20T09:58:32;0.00;99.90
28863;DHT22;15994;51.796;13.006;2022-11-20T10:03:50;0.20;99.90
28863;DHT22;15994;51.796;13.006;2022-11-20T10:06:28;0.20;99.90
28863;DHT22;15994;51.796;13.006;2022-11-20T10:09:05;0.20;99.90
28863;DHT22;15994;51.796;13.006;2022-11-20T10:20:15;0.50;99.90
28863;DHT22;15994;51.796;13.006;2022-11-20T10:22:47;0.50;99.90
28863;DHT22;15994;51.796;13.006;2022-11-20T10:25:45;0.50;99.90
28863;DHT22;15994;51.796;13.006;2022-11-20T10:31:00;0.70;99.90
28863;DHT22;15994;51.796;13.006;2022-11-20T10:33:31;0.70;99.90
28863;DHT22;15994;51.796;13.006;2022-11-20T10:36:06;0.80;99.90
28863;DHT22;15994;51.796;13.006;2022-11-20T10:38:42;0.90;99.90
28863;DHT22;15994;51.796;13.006;2022-11-20T10:41:19;0.90;99.90
28863;DHT22;15994;51.796;13.006;2022-11-20T10:44:11;0.90;99.90
28863;DHT22;15994;51.796;13.006;2022-11-20T10:46:45;0.90;99.90
28863;DHT22;15994;51.796;13.006;2022-11-20T10:49:16;0.90;99.90
28863;DHT22;15994;51.796;13.006;2022-11-20T10:52:15;0.90;99.90
28863;DHT22;15994;51.796;13.006;2022-11-20T11:00:23;1.20;99.90
28863;DHT22;15994;51.796;13.006;2022-11-20T11:02:51;1.20;99.90
28863;DHT22;15994;51.796;13.006;2022-11-20T11:13:21;1.30;99.90
28863;DHT22;15994;51.796;13.006;2022-11-20T11:15:48;1.30;99.90
28863;DHT22;15994;51.796;13.006;2022-11-20T11:18:32;1.30;99.90
28863;DHT22;15994;51.796;13.006;2022-11-20T11:21:01;1.30;99.90
28863;DHT22;15994;51.796;13.006;2022-11-20T11:26:02;1.40;99.90
28863;DHT22;15994;51.796;13.006;2022-11-20T11:28:29;1.40;99.90
28863;DHT22;15994;51.796;13.006;2022-11-20T11:30:57;1.50;99.90
28863;DHT22;15994;51.796;13.006;2022-11-20T11:33:28;1.50;99.90
28863;DHT22;15994;51.796;13.006;2022-11-20T11:36:00;1.60;99.90
28863;DHT22;15994;51.796;13.006;2022-11-20T11:38:39;1.60;99.90
28863;DHT22;15994;51.796;13.006;2022-11-20T11:41:14;1.60;99.90
28863;DHT22;15994;51.796;13.006;2022-11-20T11:43:53;1.60;99.90
28863;DHT22;15994;51.796;13.006;2022-11-20T11:46:39;1.70;99.90
28863;DHT22;15994;51.796;13.006;2022-11-20T11:54:20;1.80;99.90
28863;DHT22;15994;51.796;13.006;2022-11-20T11:56:49;1.90;99.90
28863;DHT22;15994;51.796;13.006;2022-11-20T11:59:28;1.90;99.90
28863;DHT22;15994;51.796;13.006;2022-11-20T12:02:02;1.90;99.90
28863;DHT22;15994;51.796;13.006;2022-11-20T12:09:49;2.00;99.90
28863;DHT22;15994;51.796;13.006;2022-11-20T12:12:22;2.00;99.90
28863;DHT22;15994;51.796;13.006;2022-11-20T12:14:53;2.10;99.90
28863;DHT22;15994;51.796;13.006;2022-11-20T12:17:21;2.10;99.90
28863;DHT22;15994;51.796;13.006;2022-11-20T12:19:47;2.20;99.90
28863;DHT22;15994;51.796;13.006;2022-11-20T12:25:14;2.20;99.90
28863;DHT22;15994;51.796;13.006;2022-11-20T12:30:48;2.30;99.90
28863;DHT22;15994;51.796;13.006;2022-11-20T12:33:38;2.30;99.90
28863;DHT22;15994;51.796;13.006;2022-11-20T12:36:38;2.30;99.90
28863;DHT22;15994;51.796;13.006;2022-11-20T12:39:16;2.30;99.90
28863;DHT22;15994;51.796;13.006;2022-11-20T12:43:03;2.30;99.90
28863;DHT22;15994;51.796;13.006;2022-11-20T12:54:06;2.50;99.90
28863;DHT22;15994;51.796;13.006;2022-11-20T13:07:06;2.90;99.90
28863;DHT22;15994;51.796;13.006;2022-11-20T13:09:42;3.00;99.90
28863;DHT22;15994;51.796;13.006;2022-11-20T13:12:11;3.10;99.90
28863;DHT22;15994;51.796;13.006;2022-11-20T13:17:36;3.20;99.90
28863;DHT22;15994;51.796;13.006;2022-11-20T13:20:09;3.10;99.90
28863;DHT22;15994;51.796;13.006;2022-11-20T13:22:55;3.00;99.90
28863;DHT22;15994;51.796;13.006;2022-11-20T13:25:42;3.00;99.90
28863;DHT22;15994;51.796;13.006;2022-11-20T13:30:37;3.00;99.90
28863;DHT22;15994;51.796;13.006;2022-11-20T13:38:23;2.70;99.90
28863;DHT22;15994;51.796;13.006;2022-11-20T13:40:55;2.70;99.90
28863;DHT22;15994;51.796;13.006;2022-11-20T13:43:38;2.80;99.90
28863;DHT22;15994;51.796;13.006;2022-11-20T13:46:07;2.70;99.90
28863;DHT22;15994;51.796;13.006;2022-11-20T13:48:42;2.40;99.90
28863;DHT22;15994;51.796;13.006;2022-11-20T13:51:28;2.30;99.90
28863;DHT22;15994;51.796;13.006;2022-11-20T13:54:27;2.30;99.90
28863;DHT22;15994;51.796;13.006;2022-11-20T13:59:57;2.40;99.90
28863;DHT22;15994;51.796;13.006;2022-11-20T14:02:27;2.40;99.90
28863;DHT22;15994;51.796;13.006;2022-11-20T14:04:57;2.40;99.90
28863;DHT22;15994;51.796;13.006;2022-11-20T14:07:32;2.40;99.90
28863;DHT22;15994;51.796;13.006;2022-11-20T14:10:02;2.60;99.90
28863;DHT22;15994;51.796;13.006;2022-11-20T14:12:30;2.70;99.90
28863;DHT22;15994;51.796;13.006;2022-11-20T14:14:58;2.50;99.90
28863;DHT22;15994;51.796;13.006;2022-11-20T14:19:59;2.50;99.90
28863;DHT22;15994;51.796;13.006;2022-11-20T14:22:27;2.30;99.90
28863;DHT22;15994;51.796;13.006;2022-11-20T14:27:41;2.30;99.90
28863;DHT22;15994;51.796;13.006;2022-11-20T14:30:16;2.20;99.90
28863;DHT22;15994;51.796;13.006;2022-11-20T14:32:44;2.20;99.90
28863;DHT22;15994;51.796;13.006;2022-11-20T14:35:35;2.10;99.90
28863;DHT22;15994;51.796;13.006;2022-11-20T14:38:03;1.90;99.90
28863;DHT22;15994;51.796;13.006;2022-11-20T14:40:32;1.70;99.90
28863;DHT22;15994;51.796;13.006;2022-11-20T14:43:01;1.60;99.90
28863;DHT22;15994;51.796;13.006;2022-11-20T14:45:28;1.50;99.90
28863;DHT22;15994;51.796;13.006;2022-11-20T14:47:56;1.40;99.90
28863;DHT22;15994;51.796;13.006;2022-11-20T14:50:26;1.40;99.90
28863;DHT22;15994;51.796;13.006;2022-11-20T14:52:56;1.30;99.90
28863;DHT22;15994;51.796;13.006;2022-11-20T14:58:02;1.20;99.90
28863;DHT22;15994;51.796;13.006;2022-11-20T15:00:30;1.20;99.90
28863;DHT22;15994;51.796;13.006;2022-11-20T15:02:57;1.10;99.90
28863;DHT22;15994;51.796;13.006;2022-11-20T15:05:44;1.10;99.90
28863;DHT22;15994;51.796;13.006;2022-11-20T15:08:12;1.00;99.90
28863;DHT22;15994;51.796;13.006;2022-11-20T15:10:47;0.80;99.90
28863;DHT22;15994;51.796;13.006;2022-11-20T15:13:29;0.80;99.90
28863;DHT22;15994;51.796;13.006;2022-11-20T15:15:57;0.70;99.90
28863;DHT22;15994;51.796;13.006;2022-11-20T15:18:28;0.60;99.90
28863;DHT22;15994;51.796;13.006;2022-11-20T15:20:58;0.60;99.90
28863;DHT22;15994;51.796;13.006;2022-11-20T15:23:27;0.50;99.90
28863;DHT22;15994;51.796;13.006;2022-11-20T15:25:54;0.40;99.90
28863;DHT22;15994;51.796;13.006;2022-11-20T15:28:32;0.40;99.90
28863;DHT22;15994;51.796;13.006;2022-11-20T15:31:00;0.30;99.90
28863;DHT22;15994;51.796;13.006;2022-11-20T15:33:27;0.30;99.90
28863;DHT22;15994;51.796;13.006;2022-11-20T15:35:54;0.20;99.90
28863;DHT22;15994;51.796;13.006;2022-11-20T15:38:20;0.20;99.90
28863;DHT22;15994;51.796;13.006;2022-11-20T15:40:47;0.10;99.90
28863;DHT22;15994;51.796;13.006;2022-11-20T15:43:14;0.20;99.90
28863;DHT22;15994;51.796;13.006;2022-11-20T15:45:49;0.10;99.90
28863;DHT22;15994;51.796;13.006;2022-11-20T15:48:20;0.10;99.90
28863;DHT22;15994;51.796;13.006;2022-11-20T15:53:22;0.10;99.90
28863;DHT22;15994;51.796;13.006;2022-11-20T15:55:49;0.00;99.90
28863;DHT22;15994;51.796;13.006;2022-11-20T15:58:16;0.00;99.90
28863;DHT22;15994;51.796;13.006;2022-11-20T16:00:43;0.00;99.90
28863;DHT22;15994;51.796;13.006;2022-11-20T16:03:11;0.00;99.90
28863;DHT22;15994;51.796;13.006;2022-11-20T16:05:38;0.00;99.90
28863;DHT22;15994;51.796;13.006;2022-11-20T16:08:05;-0.10;99.90
28863;DHT22;15994;51.796;13.006;2022-11-20T16:10:31;-0.10;99.90
28863;DHT22;15994;51.796;13.006;2022-11-20T16:12:58;-0.20;99.90
28863;DHT22;15994;51.796;13.006;2022-11-20T16:15:51;-0.20;99.90
28863;DHT22;15994;51.796;13.006;2022-11-20T16:18:20;-0.20;99.90
28863;DHT22;15994;51.796;13.006;2022-11-20T16:20:56;-0.20;99.90
28863;DHT22;15994;51.796;13.006;2022-11-20T16:23:23;-0.30;99.90
28863;DHT22;15994;51.796;13.006;2022-11-20T16:25:50;-0.30;99.90
28863;DHT22;15994;51.796;13.006;2022-11-20T16:28:18;-0.30;99.90
28863;DHT22;15994;51.796;13.006;2022-11-20T16:30:45;-0.30;99.90
28863;DHT22;15994;51.796;13.006;2022-11-20T16:33:16;-0.40;99.90
28863;DHT22;15994;51.796;13.006;2022-11-20T16:35:43;-0.40;99.90
28863;DHT22;15994;51.796;13.006;2022-11-20T16:38:10;-0.50;99.90
28863;DHT22;15994;51.796;13.006;2022-11-20T16:40:37;-0.50;99.90
28863;DHT22;15994;51.796;13.006;2022-11-20T16:43:09;-0.50;99.90
28863;DHT22;15994;51.796;13.006;2022-11-20T16:45:43;-0.50;99.90
28863;DHT22;15994;51.796;13.006;2022-11-20T16:48:15;-0.60;99.90
28863;DHT22;15994;51.796;13.006;2022-11-20T16:51:00;-0.60;99.90
28863;DHT22;15994;51.796;13.006;2022-11-20T16:53:27;-0.60;99.90
28863;DHT22;15994;51.796;13.006;2022-11-20T16:55:53;-0.60;99.90
28863;DHT22;15994;51.796;13.006;2022-11-20T16:58:20;-0.70;99.90
28863;DHT22;15994;51.796;13.006;2022-11-20T17:00:47;-0.70;99.90
28863;DHT22;15994;51.796;13.006;2022-11-20T17:03:14;-0.70;99.90
28863;DHT22;15994;51.796;13.006;2022-11-20T17:05:42;-0.70;99.90
28863;DHT22;15994;51.796;13.006;2022-11-20T17:08:08;-0.70;99.90
28863;DHT22;15994;51.796;13.006;2022-11-20T17:10:35;-0.70;99.90
28863;DHT22;15994;51.796;13.006;2022-11-20T17:13:02;-0.80;99.90
28863;DHT22;15994;51.796;13.006;2022-11-20T17:15:28;-0.70;99.90
28863;DHT22;15994;51.796;13.006;2022-11-20T17:17:55;-0.70;99.90
28863;DHT22;15994;51.796;13.006;2022-11-20T17:20:22;-0.70;99.90
28863;DHT22;15994;51.796;13.006;2022-11-20T17:22:48;-0.80;99.90